sensor_id;sensor_type;location;lat;lon;timestamp;temperature;humidity
296;DHT22;132;48.770;9.200;2023-11-21T00:01:18;8.50;1.00
296;DHT22;132;48.770;9.200;2023-11-21T00:03:47;8.50;1.00
296;DHT22;132;48.770;9.200;2023-11-21T00:06:36;8.50;1.00
296;DHT22;132;48.770;9.200;2023-11-21T00:09:23;8.60;1.00
296;DHT22;132;48.770;9.200;2023-11-21T00:12:11;8.60;1.00
296;DHT22;132;48.770;9.200;2023-11-21T00:19:01;8.60;1.00
296;DHT22;132;48.770;9.200;2023-11-21T00:25:52;8.50;1.00
296;DHT22;132;48.770;9.200;2023-11-21T00:32:59;8.40;1.00
296;DHT22;132;48.770;9.200;2023-11-21T00:35:36;8.40;1.00
296;DHT22;132;48.770;9.200;2023-11-21T00:42:27;8.40;1.00
296;DHT22;132;48.770;9.200;2023-11-21T00:44:54;8.40;1.00
296;DHT22;132;48.770;9.200;2023-11-21T00:47:49;8.40;1.00
296;DHT22;132;48.770;9.200;2023-11-21T00:50:21;8.30;1.00
296;DHT22;132;48.770;9.200;2023-11-21T00:52:48;8.40;1.00
296;DHT22;132;48.770;9.200;2023-11-21T00:55:14;8.40;1.00
296;DHT22;132;48.770;9.200;2023-11-21T01:02:04;8.40;1.00
296;DHT22;132;48.770;9.200;2023-11-21T01:04:31;9.60;1.00
296;DHT22;132;48.770;9.200;2023-11-21T01:06:58;8.40;1.00
296;DHT22;132;48.770;9.200;2023-11-21T01:09:25;8.40;1.00
296;DHT22;132;48.770;9.200;2023-11-21T01:11:52;8.40;1.00
296;DHT22;132;48.770;9.200;2023-11-21T01:14:20;8.40;1.00
296;DHT22;132;48.770;9.200;2023-11-21T01:25:22;8.40;1.00
296;DHT22;132;48.770;9.200;2023-11-21T01:27:54;8.40;1.00
296;DHT22;132;48.770;9.200;2023-11-21T01:30:40;8.50;1.00
296;DHT22;132;48.770;9.200;2023-11-21T01:38:00;8.40;1.00
296;DHT22;132;48.770;9.200;2023-11-21T01:45:23;8.50;1.00
296;DHT22;132;48.770;9.200;2023-11-21T01:48:03;8.50;1.00
296;DHT22;132;48.770;9.200;2023-11-21T01:50:52;8.50;1.00
296;DHT22;132;48.770;9.200;2023-11-21T01:53:39;8.50;1.00
296;DHT22;132;48.770;9.200;2023-11-21T01:56:55;8.50;1.00
296;DHT22;132;48.770;9.200;2023-11-21T02:11:37;8.60;1.00
296;DHT22;132;48.770;9.200;2023-11-21T02:26:23;8.50;1.00
296;DHT22;132;48.770;9.200;2023-11-21T02:33:23;8.50;1.00
296;DHT22;132;48.770;9.200;2023-11-21T02:47:15;8.50;1.00
296;DHT22;132;48.770;9.200;2023-11-21T02:50:02;8.50;1.00
296;DHT22;132;48.770;9.200;2023-11-21T02:52:35;8.40;1.00
296;DHT22;132;48.770;9.200;2023-11-21T02:55:02;8.50;1.00
296;DHT22;132;48.770;9.200;2023-11-21T02:57:29;8.50;1.00
296;DHT22;132;48.770;9.200;2023-11-21T03:23:40;10.40;1.00
296;DHT22;132;48.770;9.200;2023-11-21T03:26:18;8.40;1.00
296;DHT22;132;48.770;9.200;2023-11-21T03:29:04;8.50;1.00
296;DHT22;132;48.770;9.200;2023-11-21T03:32:26;8.40;1.00
296;DHT22;132;48.770;9.200;2023-11-21T03:51:18;8.20;1.00
296;DHT22;132;48.770;9.200;2023-11-21T03:54:10;8.50;1.00
296;DHT22;132;48.770;9.200;2023-11-21T04:09:14;8.50;1.00
296;DHT22;132;48.770;9.200;2023-11-21T04:16:13;8.40;1.00
296;DHT22;132;48.770;9.200;2023-11-21T04:18:40;8.30;1.00
296;DHT22;132;48.770;9.200;2023-11-21T04:21:07;8.30;1.00
296;DHT22;132;48.770;9.200;2023-11-21T04:23:34;8.30;1.00
296;DHT22;132;48.770;9.200;2023-11-21T04:33:48;8.20;1.00
296;DHT22;132;48.770;9.200;2023-11-21T04:36:15;8.20;1.00
296;DHT22;132;48.770;9.200;2023-11-21T04:38:41;8.20;1.00
296;DHT22;132;48.770;9.200;2023-11-21T04:56:36;8.20;1.00
296;DHT22;132;48.770;9.200;2023-11-21T04:59:02;8.10;1.00
296;DHT22;132;48.770;9.200;2023-11-21T05:14:14;8.10;1.00
296;DHT22;132;48.770;9.200;2023-11-21T05:16:40;8.10;1.00
296;DHT22;132;48.770;9.200;2023-11-21T05:19:07;8.10;1.00
296;DHT22;132;48.770;9.200;2023-11-21T05:21:39;8.20;1.00
296;DHT22;132;48.770;9.200;2023-11-21T05:24:06;8.30;1.00
296;DHT22;132;48.770;9.200;2023-11-21T05:26:32;8.20;1.00
296;DHT22;132;48.770;9.200;2023-11-21T05:29:03;8.30;1.00
296;DHT22;132;48.770;9.200;2023-11-21T05:31:30;8.30;1.00
296;DHT22;132;48.770;9.200;2023-11-21T05:33:56;8.30;1.00
296;DHT22;132;48.770;9.200;2023-11-21T05:43:54;8.30;1.00
296;DHT22;132;48.770;9.200;2023-11-21T05:50:58;8.30;1.00
296;DHT22;132;48.770;9.200;2023-11-21T05:53:25;8.30;1.00
296;DHT22;132;48.770;9.200;2023-11-21T05:55:51;8.30;1.00
296;DHT22;132;48.770;9.200;2023-11-21T05:58:18;8.20;1.00
296;DHT22;132;48.770;9.200;2023-11-21T06:01:13;8.20;1.00
296;DHT22;132;48.770;9.200;2023-11-21T06:11:46;7.80;1.00
296;DHT22;132;48.770;9.200;2023-11-21T06:14:37;8.20;1.00
296;DHT22;132;48.770;9.200;2023-11-21T06:17:24;8.20;1.00
296;DHT22;132;48.770;9.200;2023-11-21T06:24:23;8.20;1.00
296;DHT22;132;48.770;9.200;2023-11-21T06:31:45;8.20;1.00
296;DHT22;132;48.770;9.200;2023-11-21T06:34:17;8.20;1.00
296;DHT22;132;48.770;9.200;2023-11-21T06:36:43;8.20;1.00
296;DHT22;132;48.770;9.200;2023-11-21T06:39:27;8.20;1.00
296;DHT22;132;48.770;9.200;2023-11-21T06:55:05;8.20;1.00
296;DHT22;132;48.770;9.200;2023-11-21T07:02:02;8.20;1.00
296;DHT22;132;48.770;9.200;2023-11-21T07:09:08;8.20;1.00
296;DHT22;132;48.770;9.200;2023-11-21T07:16:15;8.40;1.00
296;DHT22;132;48.770;9.200;2023-11-21T07:19:02;8.50;1.00
296;DHT22;132;48.770;9.200;2023-11-21T07:26:29;10.80;1.00
296;DHT22;132;48.770;9.200;2023-11-21T07:37:16;8.70;1.00
296;DHT22;132;48.770;9.200;2023-11-21T07:44:47;8.70;1.00
296;DHT22;132;48.770;9.200;2023-11-21T07:51:35;8.70;1.00
296;DHT22;132;48.770;9.200;2023-11-21T07:58:59;11.50;1.00
296;DHT22;132;48.770;9.200;2023-11-21T08:01:26;7.70;1.00
296;DHT22;132;48.770;9.200;2023-11-21T08:04:10;8.60;1.00
296;DHT22;132;48.770;9.200;2023-11-21T08:06:36;8.60;1.00
296;DHT22;132;48.770;9.200;2023-11-21T08:09:03;9.00;1.00
296;DHT22;132;48.770;9.200;2023-11-21T08:11:38;8.70;1.00
296;DHT22;132;48.770;9.200;2023-11-21T08:14:05;8.70;1.00
296;DHT22;132;48.770;9.200;2023-11-21T08:16:31;8.60;1.00
296;DHT22;132;48.770;9.200;2023-11-21T08:19:00;8.80;1.00
296;DHT22;132;48.770;9.200;2023-11-21T08:21:29;8.70;1.00
296;DHT22;132;48.770;9.200;2023-11-21T08:28:13;8.80;1.00
296;DHT22;132;48.770;9.200;2023-11-21T08:30:42;8.80;1.00
296;DHT22;132;48.770;9.200;2023-11-21T08:33:09;8.80;1.00
296;DHT22;132;48.770;9.200;2023-11-21T08:35:37;8.80;1.00
296;DHT22;132;48.770;9.200;2023-11-21T08:38:04;8.90;1.00
296;DHT22;132;48.770;9.200;2023-11-21T08:40:30;8.90;1.00
296;DHT22;132;48.770;9.200;2023-11-21T08:42:58;8.90;1.00
296;DHT22;132;48.770;9.200;2023-11-21T08:45:25;8.90;1.00
296;DHT22;132;48.770;9.200;2023-11-21T08:47:54;9.00;1.00
296;DHT22;132;48.770;9.200;2023-11-21T08:50:20;9.10;1.00
296;DHT22;132;48.770;9.200;2023-11-21T08:52:49;9.10;1.00
296;DHT22;132;48.770;9.200;2023-11-21T08:55:16;9.20;1.00
296;DHT22;132;48.770;9.200;2023-11-21T08:57:43;9.30;1.00
296;DHT22;132;48.770;9.200;2023-11-21T09:00:12;9.30;1.00
296;DHT22;132;48.770;9.200;2023-11-21T09:02:43;9.40;1.00
296;DHT22;132;48.770;9.200;2023-11-21T09:05:14;9.60;1.00
296;DHT22;132;48.770;9.200;2023-11-21T09:07:42;9.70;1.00
296;DHT22;132;48.770;9.200;2023-11-21T09:23:40;10.80;1.00
296;DHT22;132;48.770;9.200;2023-11-21T09:26:07;10.80;1.00
296;DHT22;132;48.770;9.200;2023-11-21T09:28:33;10.90;1.00
296;DHT22;132;48.770;9.200;2023-11-21T09:31:01;10.90;1.00
296;DHT22;132;48.770;9.200;2023-11-21T09:33:29;11.00;1.00
296;DHT22;132;48.770;9.200;2023-11-21T09:35:57;10.90;1.00
296;DHT22;132;48.770;9.200;2023-11-21T09:38:23;10.80;1.00
296;DHT22;132;48.770;9.200;2023-11-21T09:40:50;10.80;1.00
296;DHT22;132;48.770;9.200;2023-11-21T09:43:17;10.70;1.00
296;DHT22;132;48.770;9.200;2023-11-21T09:45:54;10.60;1.00
296;DHT22;132;48.770;9.200;2023-11-21T09:49:39;10.70;1.00
296;DHT22;132;48.770;9.200;2023-11-21T10:05:02;10.10;1.00
296;DHT22;132;48.770;9.200;2023-11-21T10:07:31;10.10;1.00
296;DHT22;132;48.770;9.200;2023-11-21T10:09:59;10.10;1.00
296;DHT22;132;48.770;9.200;2023-11-21T10:12:40;10.10;1.00
296;DHT22;132;48.770;9.200;2023-11-21T10:18:33;9.20;1.00
296;DHT22;132;48.770;9.200;2023-11-21T10:21:18;10.10;1.00
296;DHT22;132;48.770;9.200;2023-11-21T10:28:07;10.20;1.00
296;DHT22;132;48.770;9.200;2023-11-21T10:30:39;10.10;1.00
296;DHT22;132;48.770;9.200;2023-11-21T10:33:07;10.00;1.00
296;DHT22;132;48.770;9.200;2023-11-21T10:35:47;10.00;1.00
296;DHT22;132;48.770;9.200;2023-11-21T10:42:35;10.00;1.00
296;DHT22;132;48.770;9.200;2023-11-21T10:45:06;10.00;1.00
296;DHT22;132;48.770;9.200;2023-11-21T10:47:41;9.90;1.00
296;DHT22;132;48.770;9.200;2023-11-21T10:50:09;10.10;1.00
296;DHT22;132;48.770;9.200;2023-11-21T10:52:42;9.90;1.00
296;DHT22;132;48.770;9.200;2023-11-21T10:55:20;9.90;1.00
296;DHT22;132;48.770;9.200;2023-11-21T10:57:50;9.80;1.00
296;DHT22;132;48.770;9.200;2023-11-21T11:00:18;9.80;1.00
296;DHT22;132;48.770;9.200;2023-11-21T11:02:52;9.80;1.00
296;DHT22;132;48.770;9.200;2023-11-21T11:05:23;9.90;1.00
296;DHT22;132;48.770;9.200;2023-11-21T11:07:51;9.90;1.00
296;DHT22;132;48.770;9.200;2023-11-21T11:11:06;9.90;1.00
296;DHT22;132;48.770;9.200;2023-11-21T11:13:33;10.10;1.00
296;DHT22;132;48.770;9.200;2023-11-21T11:16:01;10.20;1.00
296;DHT22;132;48.770;9.200;2023-11-21T11:38:16;11.20;1.00
296;DHT22;132;48.770;9.200;2023-11-21T11:49:29;10.90;1.00
296;DHT22;132;48.770;9.200;2023-11-21T11:55:23;10.70;1.00
296;DHT22;132;48.770;9.200;2023-11-21T11:58:06;10.70;1.00
296;DHT22;132;48.770;9.200;2023-11-21T12:00:50;10.70;1.00
296;DHT22;132;48.770;9.200;2023-11-21T12:03:19;10.60;1.00
296;DHT22;132;48.770;9.200;2023-11-21T12:06:06;10.60;1.00
296;DHT22;132;48.770;9.200;2023-11-21T12:08:36;10.70;1.00
296;DHT22;132;48.770;9.200;2023-11-21T12:11:04;10.70;1.00
296;DHT22;132;48.770;9.200;2023-11-21T12:13:30;10.80;1.00
296;DHT22;132;48.770;9.200;2023-11-21T12:16:25;10.90;1.00
296;DHT22;132;48.770;9.200;2023-11-21T12:23:12;10.90;1.00
296;DHT22;132;48.770;9.200;2023-11-21T12:25:40;10.80;1.00
296;DHT22;132;48.770;9.200;2023-11-21T12:28:07;10.70;1.00
296;DHT22;132;48.770;9.200;2023-11-21T12:30:36;10.70;1.00
296;DHT22;132;48.770;9.200;2023-11-21T12:33:04;10.60;1.00
296;DHT22;132;48.770;9.200;2023-11-21T12:35:34;10.60;1.00
296;DHT22;132;48.770;9.200;2023-11-21T12:38:02;10.60;1.00
296;DHT22;132;48.770;9.200;2023-11-21T12:40:29;10.50;1.00
296;DHT22;132;48.770;9.200;2023-11-21T12:43:00;10.60;1.00
296;DHT22;132;48.770;9.200;2023-11-21T12:45:28;10.60;1.00
296;DHT22;132;48.770;9.200;2023-11-21T12:48:00;10.60;1.00
296;DHT22;132;48.770;9.200;2023-11-21T12:50:29;10.60;1.00
296;DHT22;132;48.770;9.200;2023-11-21T12:53:00;10.70;1.00
296;DHT22;132;48.770;9.200;2023-11-21T12:55:32;10.80;1.00
296;DHT22;132;48.770;9.200;2023-11-21T12:58:01;10.90;1.00
296;DHT22;132;48.770;9.200;2023-11-21T13:03:06;11.10;1.00
296;DHT22;132;48.770;9.200;2023-11-21T13:05:34;11.10;1.00
296;DHT22;132;48.770;9.200;2023-11-21T13:08:03;11.00;1.00
296;DHT22;132;48.770;9.200;2023-11-21T13:10:31;10.90;1.00
296;DHT22;132;48.770;9.200;2023-11-21T13:12:58;10.80;1.00
296;DHT22;132;48.770;9.200;2023-11-21T13:15:29;10.70;1.00
296;DHT22;132;48.770;9.200;2023-11-21T13:17:57;10.60;1.00
296;DHT22;132;48.770;9.200;2023-11-21T13:20:27;10.60;1.00
296;DHT22;132;48.770;9.200;2023-11-21T13:22:56;10.50;1.00
296;DHT22;132;48.770;9.200;2023-11-21T13:25:28;10.50;1.00
296;DHT22;132;48.770;9.200;2023-11-21T13:27:58;10.50;1.00
296;DHT22;132;48.770;9.200;2023-11-21T13:30:25;10.50;1.00
296;DHT22;132;48.770;9.200;2023-11-21T13:33:03;10.50;1.00
296;DHT22;132;48.770;9.200;2023-11-21T13:35:37;11.90;1.00
296;DHT22;132;48.770;9.200;2023-11-21T13:38:12;10.10;1.00
296;DHT22;132;48.770;9.200;2023-11-21T13:40:40;10.00;1.00
296;DHT22;132;48.770;9.200;2023-11-21T13:43:12;9.80;1.00
296;DHT22;132;48.770;9.200;2023-11-21T13:45:42;9.80;1.00
296;DHT22;132;48.770;9.200;2023-11-21T13:48:10;9.60;1.00
296;DHT22;132;48.770;9.200;2023-11-21T13:50:40;9.60;1.00
296;DHT22;132;48.770;9.200;2023-11-21T13:53:14;9.50;1.00
296;DHT22;132;48.770;9.200;2023-11-21T13:55:51;9.50;1.00
296;DHT22;132;48.770;9.200;2023-11-21T13:58:21;9.50;1.00
296;DHT22;132;48.770;9.200;2023-11-21T14:01:05;9.50;1.00
296;DHT22;132;48.770;9.200;2023-11-21T14:03:39;9.50;1.00
296;DHT22;132;48.770;9.200;2023-11-21T14:06:16;9.50;1.00
296;DHT22;132;48.770;9.200;2023-11-21T14:08:50;9.50;1.00
296;DHT22;132;48.770;9.200;2023-11-21T14:11:17;9.50;1.00
296;DHT22;132;48.770;9.200;2023-11-21T14:13:44;9.50;1.00
296;DHT22;132;48.770;9.200;2023-11-21T14:16:15;9.50;1.00
296;DHT22;132;48.770;9.200;2023-11-21T14:18:43;9.50;1.00
296;DHT22;132;48.770;9.200;2023-11-21T14:21:21;9.60;1.00
296;DHT22;132;48.770;9.200;2023-11-21T14:23:48;9.50;1.00
296;DHT22;132;48.770;9.200;2023-11-21T14:26:14;9.50;1.00
296;DHT22;132;48.770;9.200;2023-11-21T14:28:42;9.60;1.00
296;DHT22;132;48.770;9.200;2023-11-21T14:31:08;9.60;1.00
296;DHT22;132;48.770;9.200;2023-11-21T14:33:40;9.60;1.00
296;DHT22;132;48.770;9.200;2023-11-21T14:36:07;9.60;1.00
296;DHT22;132;48.770;9.200;2023-11-21T14:38:36;9.60;1.00
296;DHT22;132;48.770;9.200;2023-11-21T14:45:26;9.60;1.00
296;DHT22;132;48.770;9.200;2023-11-21T14:47:55;9.60;1.00
296;DHT22;132;48.770;9.200;2023-11-21T14:50:33;9.60;1.00
296;DHT22;132;48.770;9.200;2023-11-21T14:53:05;9.70;1.00
296;DHT22;132;48.770;9.200;2023-11-21T14:55:33;9.60;1.00
296;DHT22;132;48.770;9.200;2023-11-21T14:58:15;9.60;1.00
296;DHT22;132;48.770;9.200;2023-11-21T15:00:46;9.60;1.00
296;DHT22;132;48.770;9.200;2023-11-21T15:03:12;9.60;1.00
296;DHT22;132;48.770;9.200;2023-11-21T15:06:58;10.30;1.00
296;DHT22;132;48.770;9.200;2023-11-21T15:09:25;9.60;1.00
296;DHT22;132;48.770;9.200;2023-11-21T15:13:06;9.60;1.00
296;DHT22;132;48.770;9.200;2023-11-21T15:19:54;9.50;1.00
296;DHT22;132;48.770;9.200;2023-11-21T15:22:20;9.50;1.00
296;DHT22;132;48.770;9.200;2023-11-21T15:24:47;9.50;1.00
296;DHT22;132;48.770;9.200;2023-11-21T15:27:16;9.50;1.00
296;DHT22;132;48.770;9.200;2023-11-21T15:29:43;9.50;1.00
296;DHT22;132;48.770;9.200;2023-11-21T15:32:10;9.50;1.00
296;DHT22;132;48.770;9.200;2023-11-21T15:34:38;9.50;1.00
296;DHT22;132;48.770;9.200;2023-11-21T15:37:06;9.50;1.00
296;DHT22;132;48.770;9.200;2023-11-21T15:39:35;9.50;1.00
296;DHT22;132;48.770;9.200;2023-11-21T15:42:02;9.50;1.00
296;DHT22;132;48.770;9.200;2023-11-21T15:44:30;9.50;1.00
296;DHT22;132;48.770;9.200;2023-11-21T15:47:26;9.50;1.00
296;DHT22;132;48.770;9.200;2023-11-21T15:54:06;9.50;1.00
296;DHT22;132;48.770;9.200;2023-11-21T15:56:33;9.40;1.00
296;DHT22;132;48.770;9.200;2023-11-21T15:59:02;9.40;1.00
296;DHT22;132;48.770;9.200;2023-11-21T16:04:57;10.10;1.00
296;DHT22;132;48.770;9.200;2023-11-21T16:07:28;9.30;1.00
296;DHT22;132;48.770;9.200;2023-11-21T16:09:54;9.30;1.00
296;DHT22;132;48.770;9.200;2023-11-21T16:12:21;9.20;1.00
296;DHT22;132;48.770;9.200;2023-11-21T16:14:47;9.20;1.00
296;DHT22;132;48.770;9.200;2023-11-21T16:17:15;9.20;1.00
296;DHT22;132;48.770;9.200;2023-11-21T16:19:45;9.20;1.00
296;DHT22;132;48.770;9.200;2023-11-21T16:22:13;9.10;1.00
296;DHT22;132;48.770;9.200;2023-11-21T16:24:42;9.10;1.00
296;DHT22;132;48.770;9.200;2023-11-21T16:27:08;9.10;1.00
296;DHT22;132;48.770;9.200;2023-11-21T16:29:36;9.10;1.00
296;DHT22;132;48.770;9.200;2023-11-21T16:32:18;9.10;1.00
296;DHT22;132;48.770;9.200;2023-11-21T16:34:44;9.20;1.00
296;DHT22;132;48.770;9.200;2023-11-21T16:37:11;9.40;1.00
296;DHT22;132;48.770;9.200;2023-11-21T16:39:47;9.10;1.00
296;DHT22;132;48.770;9.200;2023-11-21T16:42:23;9.10;1.00
296;DHT22;132;48.770;9.200;2023-11-21T16:49:22;9.10;1.00
296;DHT22;132;48.770;9.200;2023-11-21T16:55:52;9.00;1.00
296;DHT22;132;48.770;9.200;2023-11-21T17:02:55;8.90;1.00
296;DHT22;132;48.770;9.200;2023-11-21T17:05:23;8.80;1.00
296;DHT22;132;48.770;9.200;2023-11-21T17:07:49;8.80;1.00
296;DHT22;132;48.770;9.200;2023-11-21T17:10:20;8.70;1.00
296;DHT22;132;48.770;9.200;2023-11-21T17:12:48;8.60;1.00
296;DHT22;132;48.770;9.200;2023-11-21T17:26:16;8.40;1.00
296;DHT22;132;48.770;9.200;2023-11-21T17:29:03;7.80;1.00
296;DHT22;132;48.770;9.200;2023-11-21T17:34:54;8.50;1.00
296;DHT22;132;48.770;9.200;2023-11-21T17:37:24;8.50;1.00
296;DHT22;132;48.770;9.200;2023-11-21T17:39:50;8.50;1.00
296;DHT22;132;48.770;9.200;2023-11-21T17:53:54;8.60;1.00
296;DHT22;132;48.770;9.200;2023-11-21T17:56:33;8.50;1.00
296;DHT22;132;48.770;9.200;2023-11-21T17:58:59;8.70;1.00
296;DHT22;132;48.770;9.200;2023-11-21T18:01:38;8.60;1.00
296;DHT22;132;48.770;9.200;2023-11-21T18:08:44;8.60;1.00
296;DHT22;132;48.770;9.200;2023-11-21T18:53:39;12.40;1.00
296;DHT22;132;48.770;9.200;2023-11-21T18:56:06;8.70;1.00
296;DHT22;132;48.770;9.200;2023-11-21T18:58:35;8.70;1.00
296;DHT22;132;48.770;9.200;2023-11-21T19:01:07;8.70;1.00
296;DHT22;132;48.770;9.200;2023-11-21T19:03:33;8.70;1.00
296;DHT22;132;48.770;9.200;2023-11-21T19:06:00;8.70;1.00
296;DHT22;132;48.770;9.200;2023-11-21T19:08:26;8.70;1.00
296;DHT22;132;48.770;9.200;2023-11-21T19:10:55;8.70;1.00
296;DHT22;132;48.770;9.200;2023-11-21T19:13:40;8.80;1.00
296;DHT22;132;48.770;9.200;2023-11-21T19:16:06;8.80;1.00
296;DHT22;132;48.770;9.200;2023-11-21T19:18:32;8.80;1.00
296;DHT22;132;48.770;9.200;2023-11-21T19:20:59;8.80;1.00
296;DHT22;132;48.770;9.200;2023-11-21T19:28:20;8.80;1.00
296;DHT22;132;48.770;9.200;2023-11-21T19:38:34;8.80;1.00
296;DHT22;132;48.770;9.200;2023-11-21T20:04:37;8.70;1.00
296;DHT22;132;48.770;9.200;2023-11-21T20:07:21;8.70;1.00
296;DHT22;132;48.770;9.200;2023-11-21T20:09:49;8.60;1.00
296;DHT22;132;48.770;9.200;2023-11-21T20:12:18;8.80;1.00
296;DHT22;132;48.770;9.200;2023-11-21T20:39:44;8.70;1.00
296;DHT22;132;48.770;9.200;2023-11-21T20:51:26;8.50;1.00
296;DHT22;132;48.770;9.200;2023-11-21T20:54:13;8.60;1.00
296;DHT22;132;48.770;9.200;2023-11-21T20:56:39;8.50;1.00
296;DHT22;132;48.770;9.200;2023-11-21T20:59:07;8.50;1.00
296;DHT22;132;48.770;9.200;2023-11-21T21:32:16;8.50;1.00
296;DHT22;132;48.770;9.200;2023-11-21T21:34:45;8.50;1.00
296;DHT22;132;48.770;9.200;2023-11-21T21:58:40;8.50;1.00
296;DHT22;132;48.770;9.200;2023-11-21T22:06:01;8.50;1.00
296;DHT22;132;48.770;9.200;2023-11-21T22:08:28;8.60;1.00
296;DHT22;132;48.770;9.200;2023-11-21T22:10:54;8.50;1.00
296;DHT22;132;48.770;9.200;2023-11-21T22:13:20;8.40;1.00
296;DHT22;132;48.770;9.200;2023-11-21T22:15:52;8.40;1.00
296;DHT22;132;48.770;9.200;2023-11-21T22:18:18;8.50;1.00
296;DHT22;132;48.770;9.200;2023-11-21T22:20:45;8.50;1.00
296;DHT22;132;48.770;9.200;2023-11-21T22:23:11;8.40;1.00
296;DHT22;132;48.770;9.200;2023-11-21T22:30:00;8.40;1.00
296;DHT22;132;48.770;9.200;2023-11-21T22:36:40;8.40;1.00
296;DHT22;132;48.770;9.200;2023-11-21T22:39:06;8.40;1.00
296;DHT22;132;48.770;9.200;2023-11-21T22:41:34;8.40;1.00
296;DHT22;132;48.770;9.200;2023-11-21T22:44:01;8.40;1.00
296;DHT22;132;48.770;9.200;2023-11-21T22:46:27;8.40;1.00
296;DHT22;132;48.770;9.200;2023-11-21T22:48:54;8.40;1.00
296;DHT22;132;48.770;9.200;2023-11-21T22:51:20;8.40;1.00
296;DHT22;132;48.770;9.200;2023-11-21T22:53:47;8.40;1.00
296;DHT22;132;48.770;9.200;2023-11-21T22:56:13;8.50;1.00
296;DHT22;132;48.770;9.200;2023-11-21T22:58:40;8.40;1.00
296;DHT22;132;48.770;9.200;2023-11-21T23:01:09;8.40;1.00
296;DHT22;132;48.770;9.200;2023-11-21T23:03:37;8.50;1.00
296;DHT22;132;48.770;9.200;2023-11-21T23:06:04;8.40;1.00
296;DHT22;132;48.770;9.200;2023-11-21T23:08:30;8.40;1.00
296;DHT22;132;48.770;9.200;2023-11-21T23:10:56;8.40;1.00
296;DHT22;132;48.770;9.200;2023-11-21T23:13:23;8.40;1.00
296;DHT22;132;48.770;9.200;2023-11-21T23:15:49;8.40;1.00
296;DHT22;132;48.770;9.200;2023-11-21T23:18:18;8.40;1.00
296;DHT22;132;48.770;9.200;2023-11-21T23:20:54;8.30;1.00
296;DHT22;132;48.770;9.200;2023-11-21T23:23:21;8.30;1.00
296;DHT22;132;48.770;9.200;2023-11-21T23:26:02;8.30;1.00
296;DHT22;132;48.770;9.200;2023-11-21T23:28:29;8.30;1.00
